Station SVXA2 - Savoonga, AK Image indicating link to RSS feed of recent meteorological observations for station SVXA2


Conditions at SVXA2 as of
(10:52 am AKDT)
1852 GMT on 08/31/2026:
     

Click on the graph icon in the table below to see a time series plot of the last five days of that observation.

5-day plot - Wind Direction Wind Direction (WDIR): SW ( 220 deg true )
5-day plot - Wind Speed Wind Speed (WSPD): 8 kts
5-day plot - Wind Gust Wind Gust (GST): 12 kts
5-day plot - Atmospheric Pressure Atmospheric Pressure (PRES):30.03 in
5-day plot - Air Temperature Air Temperature (ATMP): 46.0 °F
5-day plot - Dew Point Dew Point (DEWP): 41.2 °F
5-day plot - Wind Chill Wind Chill (CHILL): 41.4 °F
5-day plot - Wind Speed at 10 Meters Wind Speed at 10 meters (WSPD10M): 8 kts
5-day plot - Wind Speed at 20 Meters Wind Speed at 20 meters (WSPD20M): 8 kts
5-day plot -  Wind Speed, Wind Gust and Atmospheric Pressure Combined plot of Wind Speed, Gust, and Air Pressure
Previous observations
TIME
(AKDT)
5-day plot - Wind Direction
WDIR
 
5-day plot - Wind Speed
WSPD
kts
5-day plot - Wind Gust
GST
kts
5-day plot - Wave Height
WVHT
ft
5-day plot - Dominant Wave Period
DPD
sec
5-day plot - Average Wave Period
APD
sec
5-day plot - Mean Wave Direction
MWD
 
5-day plot - Atmospheric Pressure
PRES
in
5-day plot - Pressure Tendency
PTDY
in
5-day plot - Air Temperature
ATMP
°F
5-day plot - Water Temperature
WTMP
°F
5-day plot - Dew Point
DEWP
°F
5-day plot - Salinity
SAL
psu
5-day plot - Visibility
VIS
nmi
5-day plot - Tide (above MLLW)
TIDE
ft
2026-08-31 10:42 am SW 9 12----30.03- 45.9- 41.4---
2026-08-31 10:32 am SW 7 11----30.03- 45.5- 41.2---
2026-08-31 10:22 am SW 8 11----30.03- 45.1- 40.8---
2026-08-31 10:12 amSSW 7 10----30.03- 44.2- 40.6---
2026-08-31 10:02 amSSW 6 9----30.03- 42.8- 39.6---
2026-08-31 09:52 amSSW 6 9----30.03- 42.6- 39.4---
2026-08-31 09:42 amSSW 7 10----30.02- 41.4- 38.1---
2026-08-31 09:32 amSSW 6 9----30.02- 41.4- 38.1---
2026-08-31 09:22 amSSW 7 9----30.03- 40.6- 37.4---
2026-08-31 09:12 amSSW 7 9----30.02- 39.4- 36.3---
2026-08-31 09:02 amSSW 7 9----30.03- 39.6- 36.3---
2026-08-31 08:52 amSSW 7 9----30.02- 38.8- 36.0---
2026-08-31 08:42 amSSW 7 9----30.02- 39.0- 35.8---
2026-08-31 08:32 amSSW 7 10----30.02- 38.1- 34.5---
2026-08-31 08:22 amSSW 7 10----30.03- 37.6- 34.7---
2026-08-31 08:12 amSSW 7 9----30.03- 37.8- 34.5---
2026-08-31 08:02 amSSW 7 9----30.02- 37.0- 33.8---
2026-08-31 07:52 am S 6 9----30.02- 36.1- 32.9---
2026-08-31 07:42 amSSW 7 9----30.02- 36.9- 33.4---
2026-08-31 07:32 amSSW 7 10----30.02- 37.0- 33.3---
2026-08-31 07:22 amSSW 7 9----30.03- 36.5- 33.6---
2026-08-31 07:12 amSSW 6 9----30.03- 36.5- 33.6---
2026-08-31 07:02 amSSW 6 9----30.03- 36.7- 34.0---
2026-08-31 06:52 amSSW 7 9----30.03- 37.6- 34.7---
2026-08-31 06:42 amSSW 7 9----30.03- 37.8- 35.1---
2026-08-31 06:32 amSSW 7 9----30.03- 35.4- 32.7---
2026-08-31 06:22 amSSW 7 9----30.03- 36.1- 33.4---
2026-08-31 06:12 amSSW 6 9----30.03- 37.6- 34.3---
2026-08-31 06:02 am SW 6 8----30.03- 37.8- 34.0---
2026-08-31 05:52 amSSW 5 7----30.03- 38.3- 35.1---
2026-08-31 05:42 am SW 6 8----30.03- 39.0- 35.4---
2026-08-31 05:32 amSSW 6 8----30.02- 37.4- 33.8---
2026-08-31 05:22 am SW 7 11----30.03- 40.5- 36.3---
2026-08-31 05:12 amSSW 5 9----30.02- 38.3- 33.8---
2026-08-31 05:02 am S 3 6----30.04- 39.7- 35.2---
2026-08-31 04:52 am SW 5 8----30.02- 38.5- 33.8---
2026-08-31 04:42 am SW 5 10----30.01- 38.8- 34.2---
2026-08-31 04:32 am W 6 11----30.04- 44.1- 37.9---
2026-08-31 04:22 am SW 5 10----30.02- 37.9- 32.9---
2026-08-31 04:12 am W 5 10----30.03- 43.7- 37.6---
2026-08-31 04:02 am W 6 11----30.03- 43.0- 35.6---
2026-08-31 03:52 am W 9 13----30.02- 44.4- 37.0---
2026-08-31 03:42 amWNW 9 12----30.03- 44.2- 37.2---
2026-08-31 03:32 amWNW 10 14----30.03- 44.2- 37.2---
2026-08-31 03:22 am W 9 12----30.03- 43.7- 36.0---
2026-08-31 03:12 amWSW 4 9----30.03- 42.4- 36.7---
2026-08-31 03:02 am W 6 9----30.03- 43.2- 36.5---
2026-08-31 02:52 am W 8 11----30.03- 43.5- 36.5---
2026-08-31 02:42 am W 9 13----30.03- 43.7- 37.2---
2026-08-31 02:32 am W 9 13----30.03- 43.7- 37.2---
2026-08-31 02:22 amWNW 9 12----30.03- 43.7- 36.7---
2026-08-31 02:12 am W 5 13----30.04- 43.5- 36.5---
2026-08-31 02:02 am W 5 12----30.03- 43.7- 37.0---
2026-08-31 01:52 am W 6 13----30.03- 43.7- 37.0---
2026-08-31 01:42 am W 7 12----30.03- 43.9- 36.9---
2026-08-31 01:32 amWNW 10 16----30.04- 43.9- 36.9---
2026-08-31 01:22 amWNW 7 12----30.04- 43.9- 36.9---
2026-08-31 01:12 am W 8 16----30.04- 44.1- 36.7---
2026-08-31 01:02 am W 5 15----30.04- 44.2- 37.2---
2026-08-31 12:52 am W 5 12----30.04- 43.9- 36.9---
2026-08-31 12:42 am W 5 17----30.04- 43.9- 36.5---
2026-08-31 12:32 am W 5 14----30.03- 43.9- 37.2---
2026-08-31 12:22 am W 5 16----30.03- 43.9- 36.1---
2026-08-31 12:12 am W 5 15----30.03- 43.9- 36.9---
2026-08-31 12:02 am W 6 17----30.03- 43.9- 36.5---
2026-08-30 11:52 pm W 4 13----30.03- 43.9- 37.2---
2026-08-30 11:42 pmWSW 4 15----30.04- 43.7- 36.7---
2026-08-30 11:32 pmWSW 6 15----30.03- 43.7- 36.7---
2026-08-30 11:22 pmWSW 5 18----30.03- 43.9- 36.5---
2026-08-30 11:12 pm W 5 15----30.03- 43.9- 36.1---
2026-08-30 11:02 pm W 6 20----30.02- 43.7- 36.0---
2026-08-30 10:52 pm W 5 17----30.03- 43.9- 36.1---
2026-08-30 10:42 pm W 6 17----30.03- 43.7- 35.6---
2026-08-30 10:32 pmWSW 7 17----30.03- 44.1- 36.7---
2026-08-30 10:22 pmWSW 6 19----30.03- 43.9- 35.8---
2026-08-30 10:12 pm W 7 21----30.03- 43.9- 35.8---
2026-08-30 10:02 pm W 7 19----30.02- 44.1- 36.0---
2026-08-30 09:52 pmWSW 7 18----30.02- 44.2- 36.5---
2026-08-30 09:42 pm W 6 17----30.02- 44.6- 36.9---
2026-08-30 09:32 pm W 6 19----30.01- 44.4- 36.0---
2026-08-30 09:22 pmWSW 7 18----30.01- 44.6- 35.8---
2026-08-30 09:12 pm W 5 14----30.02- 44.8- 34.9---
2026-08-30 09:02 pm W 6 18----30.01- 44.8- 35.2---
2026-08-30 08:52 pmWSW 6 16----30.01- 44.6- 35.1---
2026-08-30 08:42 pm W 6 17----30.00- 45.0- 35.1---
2026-08-30 08:32 pm W 6 20----29.99- 45.3- 35.4---
2026-08-30 08:22 pm W 5 11----30.00- 45.5- 36.0---
2026-08-30 08:12 pm W 6 14----30.00- 45.3- 35.1---
2026-08-30 08:02 pm W 6 19----29.99- 45.1- 35.2---
2026-08-30 07:52 pm W 5 15----29.99- 45.1- 36.3---
2026-08-30 07:42 pm W 6 16----30.00- 45.1- 36.0---
2026-08-30 07:32 pm W 6 16----29.98- 44.8- 37.0---
2026-08-30 07:22 pm W 6 17----30.00- 44.6- 36.1---
2026-08-30 07:12 pmWSW 6 17----29.98- 44.6- 36.1---
2026-08-30 07:02 pm W 5 15----29.99- 44.8- 36.0---
2026-08-30 06:52 pmWSW 6 13----29.99- 45.3- 36.9---
2026-08-30 06:42 pmWSW 5 15----29.98- 45.5- 35.6---
2026-08-30 06:32 pmSSW 5 13----29.99- 46.2- 36.3---
2026-08-30 06:22 pmSSW 6 17----29.99- 46.2- 36.3---
2026-08-30 06:12 pm W 7 18----29.97- 46.4- 36.0---
2026-08-30 06:02 pm W 9 16----29.98- 46.0- 35.2---
2026-08-30 05:52 pm W 7 17----29.96- 45.7- 35.4---
2026-08-30 05:42 pm W 7 18----29.96- 46.2- 35.1---
2026-08-30 05:32 pm W 7 16----29.96- 46.2- 37.4---
2026-08-30 05:22 pm W 7 17----29.97- 46.0- 37.6---
2026-08-30 05:12 pm W 10 23----29.95- 45.3- 37.9---
2026-08-30 05:02 pm W 9 18----29.95- 46.6- 41.4---
2026-08-30 04:52 pm W 9 16----29.96- 46.0- 40.8---
2026-08-30 04:42 pmWNW 18 25----29.95- 45.9- 40.6---
2026-08-30 04:32 pmWNW 21 29----29.94- 46.0- 40.8---
2026-08-30 04:22 pm W 25 30----29.93- 45.7- 39.9---
2026-08-30 04:12 pm W 23 31----29.93- 45.7- 39.6---
2026-08-30 04:02 pm W 22 30----29.93- 46.2- 40.5---
2026-08-30 03:52 pm W 22 33----29.93- 46.0- 39.9---
2026-08-30 03:42 pm W 22 31----29.93- 45.7- 39.2---
2026-08-30 03:32 pm W 24 32----29.92- 45.7- 38.5---
2026-08-30 03:22 pm W 24 31----29.92- 45.7- 39.2---
2026-08-30 03:12 pm W 26 34----29.92- 45.9- 39.4---
2026-08-30 03:02 pm W 25 33----29.92- 45.9- 38.1---
2026-08-30 02:52 pm W 26 33----29.92- 45.7- 38.1---
2026-08-30 02:42 pm W 24 33----29.91- 45.9- 39.0---
2026-08-30 02:32 pm W 23 33----29.91- 45.9- 38.3---
2026-08-30 02:22 pm W 20 34----29.91- 46.2- 38.3---
2026-08-30 02:12 pm W 24 36----29.91- 46.0- 37.2---
2026-08-30 02:02 pm W 25 36----29.90- 45.9- 39.0---
2026-08-30 01:52 pm W 25 36----29.90- 46.4- 39.2---
2026-08-30 01:42 pm W 23 39----29.90- 46.2- 39.0---
2026-08-30 01:32 pm W 26 38----29.89- 46.0- 38.8---
2026-08-30 01:22 pm W 21 36----29.88- 46.2- 39.7---
2026-08-30 01:12 pm W 20 38----29.89- 46.4- 39.6---
2026-08-30 01:02 pm W 22 38----29.89- 46.6- 40.1---
2026-08-30 12:52 pm W 20 35----29.89- 47.1- 40.3---
2026-08-30 12:42 pm W 20 39----29.89- 47.5- 39.9---
2026-08-30 12:32 pmWSW 23 37----29.89- 47.3- 39.4---
2026-08-30 12:22 pmWSW 23 37----29.88- 46.9- 39.0---
2026-08-30 12:12 pmWSW 22 35----29.88- 47.1- 38.8---
2026-08-30 12:02 pmWSW 24 38----29.88- 46.8- 38.5---
2026-08-30 11:52 amWSW 23 37----29.88- 46.8- 39.2---
2026-08-30 11:42 amWSW 23 37----29.88- 46.8- 39.2---
2026-08-30 11:32 amWSW 26 40----29.88- 46.6- 38.1---
2026-08-30 11:22 amWSW 23 33----29.88- 46.8- 38.8---
2026-08-30 11:12 amWSW 24 35----29.88- 46.6- 38.3---
2026-08-30 11:02 amWSW 22 34----29.88- 46.6- 39.4---
2026-08-30 10:52 am W 19 34----29.88- 46.8- 39.2---